Airfield :
LOGIN :

Register | Disclaimer

   EN    FR    IT 

 










Legend :    VFR   Marginal VFR   IFR   Intensive IFR   Very Intensive IFR
Visi :
Ceiling :
>= 8 km
>= 3000ft
5 to 8 km
1000 to 3000 ft
1500m to 5 km
500 to 1000 ft
800 to 1500m
200 to 500 ft
< 800m
< 200 ft
Symbols :   Thunderstorms  Fog  Heavy snow  Heavy precipitations  Wind > 20 kt
SIGMETs :     Misc.  Thunderstorms  Icing  Turbulence  Mountain Waves  Volcanic Ashes






- Airport Elevation : 16 ft
- IATA code : LPX


EVLA - Liepaja

CURRENT METAR :
  • 021320Z AUTO 06006KT 9999 OVC009/// M05/M07 Q1032

EXPIRED METARs :
  • 021250Z AUTO 07006KT 9999 OVC010/// M05/M06 Q1031
  • 021220Z AUTO 06006KT 9999 BKN010/// OVC012/// M05/M07 Q1031
  • 021150Z AUTO 06005KT 9999 OVC011/// M05/M07 Q1031
  • 021120Z AUTO 06006KT 9999 OVC011/// M05/M07 Q1032
  • 021050Z AUTO 07004KT 9999 OVC011/// M05/M07 Q1032

TAF TAF EVLA
Valid from the 02 at 12:00 until the 03 at 12:00 UTC


021104Z 0212/0312 09005KT 9999 OVC012
TEMPO 0212/0218 BKN006 OVC012
TEMPO 0218/0312 SCT012 OVC015



MET'MAP, your aeronautical weather chart ! - Copyright ORBIFLY December 2007 - Disclaimer

ORBIFLY MET'MAP TEAM :

Programming & Development : Alexandra Zaïnal
Original concept : Baudouin d'Aumeries
Technical & hardware support : Manuel Goepfert
Assistance : Marc-Olivier Méhu




SOURCES & CREDITS :

   NOAA